Time;durP1;ratioP1;P1;durP2;ratioP2;P2;SDS_P1;SDS_P2;PMS_P1;PMS_P2;Temp;Humidity;BMP_temperature;BMP_pressure;BME280_temperature;BME280_humidity;BME280_pressure;Samples;Min_cycle;Max_cycle;Signal;HPM_P1;HPM_P2
2021/11/29 00:01:14;;;;;;;0.93;0.80;;;;;;;;;;5061068;28;20524;-75
2021/11/29 00:03:42;;;;;;;1.30;1.00;;;;;;;;;;5056631;28;20485;-75
2021/11/29 00:06:10;;;;;;;0.60;0.53;;;;;;;;;;5050559;28;20512;-75
2021/11/29 00:08:38;;;;;;;1.00;0.90;;;;;;;;;;5047167;28;20491;-75
2021/11/29 00:11:08;;;;;;;0.67;0.67;;;;;;;;;;5060845;28;20445;-74
2021/11/29 00:13:36;;;;;;;0.60;0.60;;;;;;;;;;5060492;28;20533;-75
2021/11/29 00:16:04;;;;;;;0.90;0.90;;;;;;;;;;5060691;28;20814;-74
2021/11/29 00:18:32;;;;;;;0.60;0.60;;;;;;;;;;5058340;28;20564;-75
2021/11/29 00:21:00;;;;;;;0.40;0.40;;;;;;;;;;5060661;28;20948;-75
2021/11/29 00:23:28;;;;;;;0.70;0.70;;;;;;;;;;5060296;28;20481;-75
2021/11/29 00:25:56;;;;;;;1.80;0.50;;;;;;;;;;5063166;28;20491;-75
2021/11/29 00:28:26;;;;;;;1.07;0.67;;;;;;;;;;5053614;28;20860;-75
2021/11/29 00:30:54;;;;;;;0.70;0.70;;;;;;;;;;5060567;28;20445;-74
2021/11/29 00:33:22;;;;;;;0.50;0.50;;;;;;;;;;5056816;28;20462;-75
2021/11/29 00:35:50;;;;;;;0.70;0.70;;;;;;;;;;5050556;28;20451;-75
2021/11/29 00:38:18;;;;;;;0.63;0.60;;;;;;;;;;5055986;28;20487;-74
2021/11/29 00:40:46;;;;;;;0.67;0.67;;;;;;;;;;5059241;28;20442;-75
2021/11/29 00:43:14;;;;;;;0.60;0.60;;;;;;;;;;5060331;28;20507;-74
2021/11/29 00:45:43;;;;;;;1.23;0.83;;;;;;;;;;5060279;28;20449;-74
2021/11/29 00:48:11;;;;;;;0.77;0.77;;;;;;;;;;5058716;28;20469;-74
2021/11/29 00:50:40;;;;;;;0.80;0.60;;;;;;;;;;5047309;28;20455;-75
2021/11/29 00:53:08;;;;;;;1.23;0.60;;;;;;;;;;5059780;28;20798;-75
2021/11/29 00:55:37;;;;;;;0.77;0.60;;;;;;;;;;5059845;28;20854;-75
2021/11/29 00:58:05;;;;;;;0.83;0.83;;;;;;;;;;5059979;28;20476;-75
2021/11/29 01:00:33;;;;;;;0.57;0.57;;;;;;;;;;5059925;28;20448;-75
2021/11/29 01:03:04;;;;;;;0.80;0.80;;;;;;;;;;5057327;28;20481;-75
2021/11/29 01:05:33;;;;;;;0.57;0.57;;;;;;;;;;5058075;28;20464;-74
2021/11/29 01:08:01;;;;;;;0.60;0.60;;;;;;;;;;5058735;28;20535;-74
2021/11/29 01:10:30;;;;;;;0.90;0.90;;;;;;;;;;5059497;28;20607;-75
2021/11/29 01:12:58;;;;;;;0.80;0.67;;;;;;;;;;5059694;28;20473;-74
2021/11/29 01:15:30;;;;;;;0.60;0.60;;;;;;;;;;5059487;28;20963;-75
2021/11/29 01:18:00;;;;;;;1.07;1.07;;;;;;;;;;5056813;28;20477;-75
2021/11/29 01:20:30;;;;;;;0.80;0.80;;;;;;;;;;5056935;28;20552;-75
2021/11/29 01:22:58;;;;;;;0.90;0.90;;;;;;;;;;5059297;28;20987;-75
2021/11/29 01:25:26;;;;;;;0.67;0.67;;;;;;;;;;5066265;28;20942;-75
2021/11/29 01:27:54;;;;;;;0.70;0.70;;;;;;;;;;5070771;28;20457;-75
2021/11/29 01:30:22;;;;;;;0.70;0.70;;;;;;;;;;5052266;28;20988;-75
2021/11/29 01:32:50;;;;;;;1.17;1.17;;;;;;;;;;5056590;28;20929;-75
2021/11/29 01:35:18;;;;;;;0.70;0.70;;;;;;;;;;5055985;28;20468;-74
2021/11/29 01:37:47;;;;;;;0.60;0.60;;;;;;;;;;5054388;28;20464;-74
2021/11/29 01:40:15;;;;;;;0.77;0.70;;;;;;;;;;5059091;28;20445;-75
2021/11/29 01:42:54;;;;;;;0.80;0.80;;;;;;;;;;5059054;28;20780;-75
2021/11/29 01:45:22;;;;;;;0.70;0.70;;;;;;;;;;5058908;28;20533;-74
2021/11/29 01:47:50;;;;;;;0.50;0.50;;;;;;;;;;5058488;28;20438;-75
2021/11/29 01:50:18;;;;;;;1.13;1.13;;;;;;;;;;5057949;28;20441;-75
2021/11/29 01:52:47;;;;;;;1.50;0.53;;;;;;;;;;5057956;28;20445;-75
2021/11/29 01:55:16;;;;;;;0.70;0.70;;;;;;;;;;5058492;28;20445;-75
2021/11/29 01:57:44;;;;;;;0.70;0.70;;;;;;;;;;5058741;28;20445;-75
2021/11/29 02:00:13;;;;;;;0.93;0.60;;;;;;;;;;5058684;28;20445;-75
2021/11/29 02:02:41;;;;;;;0.70;0.70;;;;;;;;;;5058560;28;20523;-75
2021/11/29 02:05:10;;;;;;;1.13;0.90;;;;;;;;;;5054702;28;20485;-75
2021/11/29 02:07:38;;;;;;;1.00;0.57;;;;;;;;;;5056900;28;20453;-75
2021/11/29 02:10:08;;;;;;;0.60;0.60;;;;;;;;;;5058643;28;20450;-75
2021/11/29 02:12:36;;;;;;;0.70;0.70;;;;;;;;;;5058157;28;20477;-75
2021/11/29 02:15:04;;;;;;;1.00;0.77;;;;;;;;;;5058642;28;20452;-75
2021/11/29 02:17:32;;;;;;;1.07;0.90;;;;;;;;;;5057996;28;20451;-75
2021/11/29 02:20:01;;;;;;;0.70;0.70;;;;;;;;;;5045016;28;20940;-75
2021/11/29 02:22:30;;;;;;;0.60;0.60;;;;;;;;;;5058207;28;20540;-75
2021/11/29 02:24:58;;;;;;;0.97;0.97;;;;;;;;;;5057892;28;21102;-75
2021/11/29 02:27:26;;;;;;;0.50;0.50;;;;;;;;;;5054619;28;20808;-75
2021/11/29 02:29:55;;;;;;;0.67;0.67;;;;;;;;;;5057887;28;20491;-75
2021/11/29 02:32:23;;;;;;;0.80;0.80;;;;;;;;;;5056832;28;20458;-75
2021/11/29 02:34:51;;;;;;;0.67;0.67;;;;;;;;;;5054593;28;20460;-74
2021/11/29 02:37:19;;;;;;;0.67;0.67;;;;;;;;;;5052089;28;20522;-75
2021/11/29 02:39:49;;;;;;;1.27;0.83;;;;;;;;;;5055373;28;20560;-75
2021/11/29 02:42:17;;;;;;;0.70;0.70;;;;;;;;;;5058036;28;20483;-75
2021/11/29 02:44:45;;;;;;;0.53;0.53;;;;;;;;;;5057938;28;20515;-75
2021/11/29 02:47:12;;;;;;;0.83;0.83;;;;;;;;;;5056757;28;20441;-75
2021/11/29 02:49:40;;;;;;;0.73;0.60;;;;;;;;;;5042113;28;20489;-75
2021/11/29 02:52:10;;;;;;;0.60;0.60;;;;;;;;;;5057747;28;20446;-75
2021/11/29 02:54:40;;;;;;;0.70;0.70;;;;;;;;;;5057931;28;20445;-75
2021/11/29 02:57:11;;;;;;;0.60;0.60;;;;;;;;;;5057847;28;20983;-75
2021/11/29 02:59:39;;;;;;;0.67;0.63;;;;;;;;;;5057952;28;20472;-75
2021/11/29 03:02:08;;;;;;;0.50;0.50;;;;;;;;;;5057687;28;20456;-75
2021/11/29 03:04:37;;;;;;;0.73;0.70;;;;;;;;;;5047299;28;20489;-75
2021/11/29 03:07:05;;;;;;;0.93;0.93;;;;;;;;;;5052796;28;20441;-75
2021/11/29 03:09:33;;;;;;;1.23;0.73;;;;;;;;;;5051265;28;20559;-75
2021/11/29 03:12:01;;;;;;;1.07;1.07;;;;;;;;;;5042270;28;20489;-75
2021/11/29 03:14:32;;;;;;;1.10;1.00;;;;;;;;;;5055233;28;21163;-75
2021/11/29 03:17:00;;;;;;;1.57;0.77;;;;;;;;;;5056680;28;20481;-75
2021/11/29 03:19:30;;;;;;;0.70;0.70;;;;;;;;;;5058009;28;20469;-75
2021/11/29 03:21:58;;;;;;;3.70;0.80;;;;;;;;;;5057620;28;20452;-75
2021/11/29 03:24:26;;;;;;;0.60;0.60;;;;;;;;;;5057291;28;20485;-75
2021/11/29 03:26:54;;;;;;;0.90;0.90;;;;;;;;;;5046314;28;20469;-74
2021/11/29 03:29:22;;;;;;;1.60;1.50;;;;;;;;;;5054817;28;20488;-75
2021/11/29 03:31:53;;;;;;;1.20;1.10;;;;;;;;;;5055130;28;20448;-75
2021/11/29 03:34:22;;;;;;;3.73;1.30;;;;;;;;;;5047383;28;20454;-75
2021/11/29 03:36:51;;;;;;;1.13;0.90;;;;;;;;;;5055220;28;20521;-74
2021/11/29 03:39:20;;;;;;;0.77;0.77;;;;;;;;;;5057229;28;20565;-74
2021/11/29 03:41:48;;;;;;;1.07;1.07;;;;;;;;;;5050856;28;20453;-74
2021/11/29 03:44:16;;;;;;;0.90;0.90;;;;;;;;;;5051811;28;20477;-74
2021/11/29 03:46:45;;;;;;;1.30;1.20;;;;;;;;;;5055678;28;20525;-74
2021/11/29 03:49:15;;;;;;;1.10;1.10;;;;;;;;;;5055496;28;20453;-73
2021/11/29 03:51:43;;;;;;;0.90;0.90;;;;;;;;;;5053820;28;20536;-74
2021/11/29 03:54:11;;;;;;;1.30;1.20;;;;;;;;;;5056667;28;20516;-73
2021/11/29 03:56:39;;;;;;;1.57;1.33;;;;;;;;;;5055022;28;20434;-74
2021/11/29 03:59:07;;;;;;;0.73;0.73;;;;;;;;;;5055841;28;20487;-73
2021/11/29 04:01:35;;;;;;;0.77;0.77;;;;;;;;;;5057788;28;20441;-73
2021/11/29 04:04:04;;;;;;;0.80;0.80;;;;;;;;;;5057313;28;20552;-74
2021/11/29 04:06:33;;;;;;;0.90;0.90;;;;;;;;;;5057971;28;20443;-74
2021/11/29 04:09:02;;;;;;;1.47;1.37;;;;;;;;;;5054050;28;20485;-73
2021/11/29 04:11:31;;;;;;;1.60;1.50;;;;;;;;;;5053610;28;20437;-73
2021/11/29 04:13:59;;;;;;;0.90;0.90;;;;;;;;;;5057604;28;20782;-74
2021/11/29 04:16:27;;;;;;;2.37;0.83;;;;;;;;;;5058844;28;20440;-73
2021/11/29 04:18:55;;;;;;;0.70;0.70;;;;;;;;;;5057595;28;21231;-73
2021/11/29 04:21:23;;;;;;;6.40;4.07;;;;;;;;;;5059334;28;20440;-73
2021/11/29 04:23:52;;;;;;;0.83;0.83;;;;;;;;;;5060322;28;20444;-73
2021/11/29 04:26:20;;;;;;;1.33;0.87;;;;;;;;;;5057006;28;20481;-73
2021/11/29 04:28:51;;;;;;;3.03;1.73;;;;;;;;;;5058072;28;20552;-73
2021/11/29 04:31:19;;;;;;;3.73;2.57;;;;;;;;;;5060009;28;20437;-73
2021/11/29 04:33:47;;;;;;;4.20;3.10;;;;;;;;;;5057987;28;20481;-73
2021/11/29 04:36:15;;;;;;;1.80;1.50;;;;;;;;;;5060955;28;20540;-73
2021/11/29 04:38:43;;;;;;;1.87;1.73;;;;;;;;;;5052195;28;20563;-73
2021/11/29 04:41:13;;;;;;;2.10;1.67;;;;;;;;;;5060369;28;20442;-73
2021/11/29 04:43:41;;;;;;;2.70;1.50;;;;;;;;;;5058894;28;20483;-73
2021/11/29 04:46:09;;;;;;;4.43;1.80;;;;;;;;;;5060279;28;20959;-74
2021/11/29 04:48:38;;;;;;;1.60;1.50;;;;;;;;;;5059413;28;20504;-74
2021/11/29 04:51:06;;;;;;;2.87;1.93;;;;;;;;;;5060046;28;20449;-74
2021/11/29 04:53:35;;;;;;;5.63;2.90;;;;;;;;;;5059810;28;20954;-74
2021/11/29 04:56:03;;;;;;;6.77;3.67;;;;;;;;;;5056862;28;20521;-74
2021/11/29 04:58:33;;;;;;;4.90;2.97;;;;;;;;;;5054946;28;20527;-73
2021/11/29 05:01:01;;;;;;;5.57;2.40;;;;;;;;;;5060106;28;20450;-74
2021/11/29 05:03:29;;;;;;;2.40;2.00;;;;;;;;;;5058447;28;20956;-74
2021/11/29 05:05:57;;;;;;;4.93;3.17;;;;;;;;;;5059660;28;20489;-74
2021/11/29 05:08:30;;;;;;;7.83;3.53;;;;;;;;;;5050978;28;20472;-74
2021/11/29 05:10:58;;;;;;;10.67;3.40;;;;;;;;;;5059716;28;20441;-74
2021/11/29 05:13:27;;;;;;;4.67;3.00;;;;;;;;;;5047251;28;21056;-74
2021/11/29 05:15:56;;;;;;;4.33;2.20;;;;;;;;;;5044647;28;20969;-74
2021/11/29 05:18:24;;;;;;;5.53;2.20;;;;;;;;;;5042727;28;21174;-74
2021/11/29 05:20:52;;;;;;;2.03;1.57;;;;;;;;;;5047621;28;20437;-74
2021/11/29 05:23:20;;;;;;;2.00;1.80;;;;;;;;;;5045498;28;20466;-74
2021/11/29 05:25:49;;;;;;;5.87;1.87;;;;;;;;;;5043602;28;20488;-74
2021/11/29 05:28:17;;;;;;;2.60;1.83;;;;;;;;;;5045616;28;20497;-74
2021/11/29 05:30:45;;;;;;;1.53;1.10;;;;;;;;;;5046889;28;20461;-74
2021/11/29 05:33:14;;;;;;;2.77;1.80;;;;;;;;;;5045417;28;20469;-74
2021/11/29 05:35:42;;;;;;;2.70;1.90;;;;;;;;;;5044766;28;20437;-74
2021/11/29 05:38:10;;;;;;;3.40;1.50;;;;;;;;;;5045813;28;20473;-74
2021/11/29 05:40:38;;;;;;;5.27;1.83;;;;;;;;;;5045940;28;20437;-74
2021/11/29 05:43:06;;;;;;;1.63;1.53;;;;;;;;;;5046044;28;20453;-74
2021/11/29 05:45:35;;;;;;;1.87;1.77;;;;;;;;;;5044689;28;20480;-74
2021/11/29 05:48:04;;;;;;;1.50;1.40;;;;;;;;;;5043976;28;20549;-74
2021/11/29 05:50:33;;;;;;;1.10;0.80;;;;;;;;;;5044223;28;20443;-75
2021/11/29 05:53:01;;;;;;;1.10;1.00;;;;;;;;;;5046888;28;20444;-74
2021/11/29 05:55:29;;;;;;;1.63;0.80;;;;;;;;;;5046612;28;20821;-75
2021/11/29 05:57:57;;;;;;;1.57;1.13;;;;;;;;;;5048221;28;20465;-75
2021/11/29 06:00:25;;;;;;;1.00;0.90;;;;;;;;;;5058430;28;20449;-75
2021/11/29 06:02:53;;;;;;;1.20;1.20;;;;;;;;;;5054616;28;20467;-75
2021/11/29 06:05:23;;;;;;;0.93;0.93;;;;;;;;;;5053128;28;20489;-75
2021/11/29 06:07:53;;;;;;;1.73;1.63;;;;;;;;;;5045973;28;20493;-75
2021/11/29 06:10:21;;;;;;;1.20;1.10;;;;;;;;;;5057928;28;20449;-75
2021/11/29 06:12:49;;;;;;;1.83;1.37;;;;;;;;;;5058000;28;20476;-75
2021/11/29 06:15:18;;;;;;;1.63;1.53;;;;;;;;;;5058648;28;20448;-74
2021/11/29 06:17:46;;;;;;;1.07;1.03;;;;;;;;;;5050019;28;20540;-73
2021/11/29 06:20:19;;;;;;;2.17;1.53;;;;;;;;;;5053710;28;20445;-73
2021/11/29 06:22:48;;;;;;;1.03;1.03;;;;;;;;;;5046839;28;20450;-73
2021/11/29 06:25:17;;;;;;;1.50;1.40;;;;;;;;;;5042348;28;20806;-73
2021/11/29 06:27:45;;;;;;;1.43;1.30;;;;;;;;;;5043482;28;21183;-73
2021/11/29 06:30:14;;;;;;;1.20;1.20;;;;;;;;;;5048362;28;20798;-74
2021/11/29 06:32:42;;;;;;;1.53;1.43;;;;;;;;;;5045103;28;20444;-74
2021/11/29 06:35:10;;;;;;;1.77;1.20;;;;;;;;;;5053047;28;20484;-73
2021/11/29 06:37:39;;;;;;;0.77;0.77;;;;;;;;;;5052247;28;20454;-73
2021/11/29 06:40:08;;;;;;;1.13;1.10;;;;;;;;;;5058079;28;20458;-73
2021/11/29 06:42:37;;;;;;;1.77;1.40;;;;;;;;;;5058039;28;20445;-73
2021/11/29 06:45:05;;;;;;;2.07;1.37;;;;;;;;;;5057759;28;20453;-73
2021/11/29 06:47:33;;;;;;;1.57;1.13;;;;;;;;;;5050860;28;20910;-74
2021/11/29 06:50:01;;;;;;;1.03;1.03;;;;;;;;;;5057852;28;20465;-74
2021/11/29 06:52:29;;;;;;;1.47;1.37;;;;;;;;;;5057780;28;20540;-74
2021/11/29 06:54:59;;;;;;;1.53;0.93;;;;;;;;;;5052824;28;20459;-73
2021/11/29 06:57:27;;;;;;;0.90;0.90;;;;;;;;;;5057756;28;20528;-73
2021/11/29 06:59:57;;;;;;;1.63;1.37;;;;;;;;;;5055711;28;20477;-74
2021/11/29 07:02:27;;;;;;;2.40;1.67;;;;;;;;;;5047619;28;20470;-75
2021/11/29 07:04:56;;;;;;;1.27;1.20;;;;;;;;;;5053469;28;20497;-74
2021/11/29 07:07:24;;;;;;;1.30;1.30;;;;;;;;;;5049345;28;20477;-74
2021/11/29 07:09:52;;;;;;;1.87;1.43;;;;;;;;;;5056947;28;20552;-73
2021/11/29 07:12:20;;;;;;;1.40;1.33;;;;;;;;;;5056805;28;20469;-74
2021/11/29 07:14:48;;;;;;;1.60;1.50;;;;;;;;;;5057071;28;20524;-74
2021/11/29 07:17:17;;;;;;;1.63;1.53;;;;;;;;;;5046026;28;20544;-74
2021/11/29 07:19:50;;;;;;;1.70;1.60;;;;;;;;;;5049174;28;20472;-74
2021/11/29 07:22:19;;;;;;;3.37;1.30;;;;;;;;;;5077009;28;20441;-74
2021/11/29 07:24:50;;;;;;;1.73;1.63;;;;;;;;;;5065317;28;20556;-74
2021/11/29 07:27:18;;;;;;;2.77;1.37;;;;;;;;;;5056879;28;20568;-74
2021/11/29 07:29:46;;;;;;;2.00;1.63;;;;;;;;;;5056712;28;20463;-74
2021/11/29 07:32:14;;;;;;;1.30;1.20;;;;;;;;;;5050460;28;20538;-74
2021/11/29 07:34:44;;;;;;;5.50;2.20;;;;;;;;;;5052877;28;20509;-75
2021/11/29 07:37:15;;;;;;;1.70;1.60;;;;;;;;;;5044528;28;20450;-77
2021/11/29 07:39:43;;;;;;;1.60;1.50;;;;;;;;;;5062715;28;20491;-77
2021/11/29 07:42:11;;;;;;;3.30;1.57;;;;;;;;;;5054061;28;20824;-78
2021/11/29 07:44:39;;;;;;;1.93;1.70;;;;;;;;;;5056833;28;20543;-77
2021/11/29 07:47:07;;;;;;;3.70;1.20;;;;;;;;;;5056736;28;20481;-77
2021/11/29 07:49:36;;;;;;;1.60;1.50;;;;;;;;;;5057350;28;20483;-78
2021/11/29 07:52:07;;;;;;;4.37;1.50;;;;;;;;;;5061002;28;20463;-78
2021/11/29 07:54:35;;;;;;;1.63;1.53;;;;;;;;;;5066983;28;20476;-77
2021/11/29 07:57:04;;;;;;;2.07;1.57;;;;;;;;;;5062221;28;20441;-77
2021/11/29 07:59:32;;;;;;;2.23;1.80;;;;;;;;;;5058928;28;20866;-79
2021/11/29 08:02:18;;;;;;;2.30;1.30;;;;;;;;;;5051318;28;20459;-71
2021/11/29 08:04:47;;;;;;;1.87;1.43;;;;;;;;;;5048526;28;20473;-72
2021/11/29 08:07:19;;;;;;;2.73;1.40;;;;;;;;;;5047471;28;20546;-71
2021/11/29 08:09:47;;;;;;;2.53;1.33;;;;;;;;;;5048444;28;20463;-74
2021/11/29 08:12:16;;;;;;;1.50;1.40;;;;;;;;;;5048124;28;20473;-73
2021/11/29 08:14:44;;;;;;;3.80;2.57;;;;;;;;;;5045876;28;20442;-73
2021/11/29 08:17:12;;;;;;;2.20;1.23;;;;;;;;;;5058294;28;20513;-74
2021/11/29 08:19:40;;;;;;;2.07;1.50;;;;;;;;;;5060089;28;20897;-75
2021/11/29 08:22:08;;;;;;;1.40;1.30;;;;;;;;;;5058867;28;20544;-73
2021/11/29 08:24:37;;;;;;;1.70;1.60;;;;;;;;;;5060115;28;20523;-73
2021/11/29 08:27:05;;;;;;;1.40;1.30;;;;;;;;;;5079454;28;20475;-73
2021/11/29 08:29:33;;;;;;;1.80;1.70;;;;;;;;;;5066179;28;20543;-73
2021/11/29 08:32:03;;;;;;;2.17;1.73;;;;;;;;;;5057124;28;20492;-73
2021/11/29 08:34:31;;;;;;;2.40;2.20;;;;;;;;;;5059773;28;20897;-73
2021/11/29 08:36:59;;;;;;;2.13;1.47;;;;;;;;;;5058854;28;21025;-73
2021/11/29 08:39:27;;;;;;;2.50;1.70;;;;;;;;;;5059630;28;20548;-73
2021/11/29 08:41:56;;;;;;;6.23;1.80;;;;;;;;;;5060195;28;20444;-74
2021/11/29 08:44:24;;;;;;;3.60;1.43;;;;;;;;;;5059749;28;20511;-73
2021/11/29 08:46:52;;;;;;;2.83;1.87;;;;;;;;;;5055624;28;20560;-74
2021/11/29 08:49:21;;;;;;;3.80;2.03;;;;;;;;;;5059682;28;21042;-74
2021/11/29 08:51:49;;;;;;;2.90;1.73;;;;;;;;;;5058765;28;20457;-73
2021/11/29 08:54:17;;;;;;;4.93;1.63;;;;;;;;;;5059671;28;20445;-74
2021/11/29 08:56:46;;;;;;;2.30;1.90;;;;;;;;;;5065912;28;20472;-74
2021/11/29 08:59:16;;;;;;;2.00;1.80;;;;;;;;;;5059350;28;20480;-74
2021/11/29 09:01:44;;;;;;;2.70;1.90;;;;;;;;;;5048401;28;20454;-74
2021/11/29 09:04:13;;;;;;;2.27;2.07;;;;;;;;;;5046845;28;20489;-74
2021/11/29 09:06:41;;;;;;;3.47;1.77;;;;;;;;;;5048672;28;20548;-75
2021/11/29 09:09:11;;;;;;;1.90;1.67;;;;;;;;;;5054790;28;20863;-72
2021/11/29 09:11:39;;;;;;;4.13;1.80;;;;;;;;;;5062563;28;20577;-75
2021/11/29 09:14:07;;;;;;;2.67;2.00;;;;;;;;;;5059455;28;20446;-72
2021/11/29 09:16:36;;;;;;;2.23;2.03;;;;;;;;;;5058348;28;20548;-73
2021/11/29 09:19:05;;;;;;;1.80;1.70;;;;;;;;;;5059085;28;20519;-73
2021/11/29 09:21:33;;;;;;;3.80;2.03;;;;;;;;;;5049014;28;20462;-72
2021/11/29 09:24:01;;;;;;;2.23;1.70;;;;;;;;;;5053252;28;20537;-72
2021/11/29 09:26:29;;;;;;;4.07;2.60;;;;;;;;;;5056843;28;20463;-73
2021/11/29 09:28:57;;;;;;;5.17;2.40;;;;;;;;;;5057493;28;20913;-72
2021/11/29 09:31:26;;;;;;;3.03;2.57;;;;;;;;;;5056843;28;20457;-72
2021/11/29 09:33:55;;;;;;;1.70;1.60;;;;;;;;;;5055319;28;20457;-73
2021/11/29 09:36:23;;;;;;;2.37;2.17;;;;;;;;;;5057500;28;20515;-73
2021/11/29 09:38:51;;;;;;;5.00;2.03;;;;;;;;;;5057553;28;20496;-73
2021/11/29 09:41:22;;;;;;;2.40;1.87;;;;;;;;;;5057336;28;20451;-73
2021/11/29 09:43:50;;;;;;;2.20;2.03;;;;;;;;;;5078782;28;20445;-72
2021/11/29 09:46:18;;;;;;;2.47;1.97;;;;;;;;;;5078589;28;20449;-72
2021/11/29 09:48:47;;;;;;;7.27;1.77;;;;;;;;;;5062662;28;20513;-73
2021/11/29 09:51:34;;;;;;;2.83;2.00;;;;;;;;;;5045326;28;20469;-72
2021/11/29 09:54:03;;;;;;;4.43;1.60;;;;;;;;;;5056033;28;20463;-72
2021/11/29 09:56:31;;;;;;;1.87;1.53;;;;;;;;;;5058701;28;20445;-73
2021/11/29 09:58:59;;;;;;;1.40;1.30;;;;;;;;;;5058659;28;20466;-74
2021/11/29 10:01:27;;;;;;;2.90;2.00;;;;;;;;;;5049430;28;20437;-72
2021/11/29 10:04:01;;;;;;;2.37;1.60;;;;;;;;;;5043844;28;20517;-72
2021/11/29 10:06:29;;;;;;;2.27;1.53;;;;;;;;;;5045474;28;20461;-72
2021/11/29 10:08:59;;;;;;;2.87;2.00;;;;;;;;;;5044758;28;20561;-72
2021/11/29 10:11:29;;;;;;;4.00;1.80;;;;;;;;;;5044109;28;21067;-71
2021/11/29 10:13:59;;;;;;;2.90;1.67;;;;;;;;;;5042645;28;20437;-74
2021/11/29 10:16:31;;;;;;;2.47;1.80;;;;;;;;;;5045857;28;20530;-72
2021/11/29 10:18:59;;;;;;;7.17;1.83;;;;;;;;;;5044203;28;20848;-72
2021/11/29 10:21:27;;;;;;;1.90;1.77;;;;;;;;;;5053167;28;20441;-75
2021/11/29 10:23:57;;;;;;;2.33;1.50;;;;;;;;;;5057556;28;20523;-75
2021/11/29 10:26:28;;;;;;;1.90;1.80;;;;;;;;;;5070946;28;20447;-75
2021/11/29 10:28:57;;;;;;;4.00;1.90;;;;;;;;;;5057405;28;20495;-76
2021/11/29 10:31:27;;;;;;;4.53;1.90;;;;;;;;;;5057973;28;20445;-75
2021/11/29 10:33:57;;;;;;;3.73;1.67;;;;;;;;;;5054810;28;20457;-75
2021/11/29 10:36:28;;;;;;;2.03;1.80;;;;;;;;;;5056780;28;20540;-75
2021/11/29 10:38:58;;;;;;;3.07;1.77;;;;;;;;;;5052287;28;20508;-75
2021/11/29 10:41:29;;;;;;;1.40;1.40;;;;;;;;;;5048990;28;20438;-76
2021/11/29 10:43:58;;;;;;;1.87;1.50;;;;;;;;;;5044272;28;20823;-76
2021/11/29 10:46:28;;;;;;;1.87;1.77;;;;;;;;;;5043537;28;20549;-76
2021/11/29 10:48:57;;;;;;;1.63;1.47;;;;;;;;;;5043239;28;20493;-76
2021/11/29 10:51:25;;;;;;;1.67;1.30;;;;;;;;;;5044922;28;20467;-73
2021/11/29 10:53:57;;;;;;;1.13;1.13;;;;;;;;;;5057609;28;20446;-72
2021/11/29 10:56:26;;;;;;;5.83;2.40;;;;;;;;;;5042971;28;20469;-70
2021/11/29 10:58:57;;;;;;;2.17;1.63;;;;;;;;;;5054611;28;20460;-70
2021/11/29 11:01:35;;;;;;;3.20;1.80;;;;;;;;;;5051077;28;20452;-71
2021/11/29 11:04:05;;;;;;;7.03;1.93;;;;;;;;;;5044180;28;20449;-73
2021/11/29 11:06:34;;;;;;;2.03;1.80;;;;;;;;;;5041581;28;20440;-73
2021/11/29 11:09:09;;;;;;;1.30;1.10;;;;;;;;;;5051512;28;20493;-73
2021/11/29 11:11:38;;;;;;;1.60;1.50;;;;;;;;;;5056881;28;20464;-71
2021/11/29 11:14:09;;;;;;;4.50;1.57;;;;;;;;;;5046283;28;20469;-72
2021/11/29 11:16:39;;;;;;;4.40;1.97;;;;;;;;;;5055083;28;20441;-71
2021/11/29 11:19:09;;;;;;;3.90;2.43;;;;;;;;;;5056791;28;20827;-72
2021/11/29 11:21:37;;;;;;;1.83;1.73;;;;;;;;;;5057069;28;20445;-72
2021/11/29 11:24:22;;;;;;;5.67;2.00;;;;;;;;;;5054962;28;20506;-72
2021/11/29 11:26:51;;;;;;;3.53;1.70;;;;;;;;;;5041399;28;21003;-73
2021/11/29 11:29:33;;;;;;;1.80;1.50;;;;;;;;;;5039097;28;20478;-73
2021/11/29 11:32:08;;;;;;;2.63;2.20;;;;;;;;;;5044712;28;20925;-71
2021/11/29 11:34:37;;;;;;;1.60;1.50;;;;;;;;;;5046955;28;20480;-69
2021/11/29 11:37:05;;;;;;;2.57;1.50;;;;;;;;;;5044126;28;20457;-70
2021/11/29 11:39:33;;;;;;;2.10;1.57;;;;;;;;;;5042353;28;20536;-70
2021/11/29 11:42:01;;;;;;;4.03;1.93;;;;;;;;;;5044742;28;20445;-68
2021/11/29 11:44:30;;;;;;;3.87;1.60;;;;;;;;;;5047131;28;20438;-71
2021/11/29 11:47:00;;;;;;;3.67;1.70;;;;;;;;;;5055683;28;20448;-69
2021/11/29 11:49:28;;;;;;;3.10;1.60;;;;;;;;;;5049879;28;20485;-71
2021/11/29 11:51:56;;;;;;;8.87;4.73;;;;;;;;;;5056316;28;20445;-80
2021/11/29 11:54:24;;;;;;;13.07;6.37;;;;;;;;;;5055752;28;20446;-79
2021/11/29 11:57:14;;;;;;;17.93;4.57;;;;;;;;;;5054904;28;20457;-79
2021/11/29 12:00:00;;;;;;;6.03;2.47;;;;;;;;;;5057089;28;20465;-70
2021/11/29 12:03:05;;;;;;;1.93;1.37;;;;;;;;;;5045951;28;20464;-70
2021/11/29 12:05:36;;;;;;;3.43;1.77;;;;;;;;;;5047542;28;20456;-70
2021/11/29 12:08:32;;;;;;;2.30;1.40;;;;;;;;;;5052798;28;20462;-70
2021/11/29 12:11:01;;;;;;;3.37;1.60;;;;;;;;;;5056683;28;20437;-70
2021/11/29 12:13:30;;;;;;;3.50;1.40;;;;;;;;;;5049321;28;20565;-70
2021/11/29 12:15:58;;;;;;;4.17;1.83;;;;;;;;;;5051892;28;20444;-70
2021/11/29 12:18:46;;;;;;;7.23;1.73;;;;;;;;;;5043552;28;20561;-70
2021/11/29 12:21:17;;;;;;;1.27;1.17;;;;;;;;;;5045757;28;20866;-70
2021/11/29 12:23:47;;;;;;;6.37;1.60;;;;;;;;;;5056659;28;20526;-70
2021/11/29 12:26:15;;;;;;;3.40;2.30;;;;;;;;;;5053691;28;20457;-70
2021/11/29 12:28:43;;;;;;;1.60;1.43;;;;;;;;;;5054804;28;20477;-71
2021/11/29 12:31:30;;;;;;;2.87;1.63;;;;;;;;;;5056681;28;20441;-70
2021/11/29 12:34:04;;;;;;;2.63;1.53;;;;;;;;;;5050531;28;20848;-71
2021/11/29 12:36:46;;;;;;;3.70;1.43;;;;;;;;;;5058191;28;20441;-70
2021/11/29 12:39:36;;;;;;;2.83;1.53;;;;;;;;;;5059567;28;20980;-70
2021/11/29 12:42:04;;;;;;;3.00;1.33;;;;;;;;;;5060169;28;20536;-70
2021/11/29 12:44:47;;;;;;;1.57;1.47;;;;;;;;;;5060327;28;20441;-70
2021/11/29 12:47:19;;;;;;;1.33;1.23;;;;;;;;;;5056134;28;20525;-70
2021/11/29 12:49:50;;;;;;;1.50;1.40;;;;;;;;;;5051411;28;20493;-71
2021/11/29 12:52:34;;;;;;;2.17;1.43;;;;;;;;;;5060530;28;20448;-70
2021/11/29 12:55:04;;;;;;;2.27;1.47;;;;;;;;;;5059913;28;20455;-70
2021/11/29 12:57:33;;;;;;;1.63;1.20;;;;;;;;;;5055217;28;20460;-70
2021/11/29 13:00:04;;;;;;;2.67;1.43;;;;;;;;;;5053376;28;20481;-71
2021/11/29 13:02:46;;;;;;;2.90;1.17;;;;;;;;;;5058671;28;20457;-71
2021/11/29 13:05:33;;;;;;;1.47;1.37;;;;;;;;;;5058576;28;20472;-70
2021/11/29 13:08:04;;;;;;;2.53;1.13;;;;;;;;;;5058523;28;20840;-70
2021/11/29 13:10:51;;;;;;;1.27;1.27;;;;;;;;;;5059660;28;20520;-70
2021/11/29 13:13:34;;;;;;;2.70;1.67;;;;;;;;;;5053673;28;20500;-70
2021/11/29 13:16:04;;;;;;;4.23;1.37;;;;;;;;;;5054665;28;20452;-70
2021/11/29 13:18:52;;;;;;;6.33;1.27;;;;;;;;;;5051225;28;20478;-70
2021/11/29 13:21:21;;;;;;;2.60;1.60;;;;;;;;;;5056900;28;20451;-70
2021/11/29 13:23:50;;;;;;;1.57;1.40;;;;;;;;;;5059612;28;20441;-70
2021/11/29 13:26:19;;;;;;;2.33;1.43;;;;;;;;;;5064279;28;20441;-70
2021/11/29 13:28:52;;;;;;;2.83;1.10;;;;;;;;;;5072334;28;20544;-70
2021/11/29 13:31:24;;;;;;;2.63;1.27;;;;;;;;;;5039170;28;20485;-70
2021/11/29 13:33:52;;;;;;;2.80;1.90;;;;;;;;;;5052440;28;20469;-70
2021/11/29 13:36:37;;;;;;;3.17;2.23;;;;;;;;;;5059106;28;20485;-70
2021/11/29 13:39:10;;;;;;;1.63;1.10;;;;;;;;;;5050865;28;20479;-70
2021/11/29 13:41:38;;;;;;;2.57;1.47;;;;;;;;;;5058951;28;20473;-70
2021/11/29 13:44:24;;;;;;;1.40;1.07;;;;;;;;;;5058811;28;20467;-69
2021/11/29 13:47:00;;;;;;;4.57;1.20;;;;;;;;;;5058473;28;20532;-70
2021/11/29 13:49:31;;;;;;;1.90;1.30;;;;;;;;;;5049057;28;20473;-70
2021/11/29 13:51:59;;;;;;;1.73;1.40;;;;;;;;;;5054975;28;20461;-70
2021/11/29 13:54:27;;;;;;;0.87;0.87;;;;;;;;;;5059145;28;20536;-70
2021/11/29 13:56:55;;;;;;;5.07;1.27;;;;;;;;;;5059163;28;20445;-70
2021/11/29 13:59:26;;;;;;;4.43;1.50;;;;;;;;;;5047206;28;20656;-70
2021/11/29 14:02:03;;;;;;;1.30;1.20;;;;;;;;;;5056704;28;20471;-70
2021/11/29 14:04:31;;;;;;;0.80;0.80;;;;;;;;;;5045241;28;20454;-70
2021/11/29 14:07:01;;;;;;;1.37;1.27;;;;;;;;;;5054101;28;20459;-70
2021/11/29 14:09:29;;;;;;;4.33;1.20;;;;;;;;;;5057227;28;20840;-70
2021/11/29 14:11:57;;;;;;;1.57;1.00;;;;;;;;;;5056277;28;20988;-70
2021/11/29 14:14:28;;;;;;;1.90;1.13;;;;;;;;;;5044293;28;20458;-70
2021/11/29 14:16:56;;;;;;;1.87;1.00;;;;;;;;;;5044402;28;20552;-70
2021/11/29 14:19:26;;;;;;;1.27;1.00;;;;;;;;;;5045053;28;20473;-70
2021/11/29 14:21:55;;;;;;;4.03;1.50;;;;;;;;;;5044276;28;20569;-70
2021/11/29 14:24:23;;;;;;;1.53;1.13;;;;;;;;;;5058447;28;20473;-70
2021/11/29 14:26:55;;;;;;;2.83;1.60;;;;;;;;;;5057832;28;20465;-70
2021/11/29 14:29:24;;;;;;;2.20;1.30;;;;;;;;;;5057991;28;20564;-70
2021/11/29 14:31:58;;;;;;;2.27;1.80;;;;;;;;;;5056641;28;20485;-70
2021/11/29 14:34:27;;;;;;;1.60;1.50;;;;;;;;;;5046941;28;20829;-70
2021/11/29 14:36:58;;;;;;;3.63;1.60;;;;;;;;;;5040880;28;20892;-70
2021/11/29 14:39:28;;;;;;;2.57;1.80;;;;;;;;;;5056264;28;20481;-69
2021/11/29 14:41:58;;;;;;;2.20;1.63;;;;;;;;;;5058352;28;20448;-70
2021/11/29 14:44:27;;;;;;;5.03;1.70;;;;;;;;;;5058089;28;20445;-70
2021/11/29 14:46:57;;;;;;;1.90;1.33;;;;;;;;;;5057773;28;20445;-70
2021/11/29 14:49:31;;;;;;;1.50;1.40;;;;;;;;;;5055497;28;20485;-70
2021/11/29 14:52:01;;;;;;;2.67;1.30;;;;;;;;;;5043277;28;20481;-70
2021/11/29 14:54:29;;;;;;;2.77;1.80;;;;;;;;;;5057833;28;20505;-70
2021/11/29 14:56:57;;;;;;;3.10;1.50;;;;;;;;;;5057881;28;20447;-70
2021/11/29 14:59:27;;;;;;;1.60;1.50;;;;;;;;;;5050624;28;20478;-70